Terminal Aerodrome Forecast
Issued by NWS

Home | Current Version | Previous Version | Text Only | Print | Product List | Glossary On
Versions: 1 2 3 4 5 6 7 8 9 10 11 12 13 14 15 16 17
000
FTUS43 KLSX 080400 AAB
TAFUIN
TAF AMD
KUIN 080416Z 0804/0824 VRB04KT P6SM VCTS BKN050CB
      TEMPO 0804/0806 VRB30G45KT 1SM +TSRA OVC015CB
     FM080600 VRB04KT 5SM -TSRA OVC060CB
     FM080900 30008KT P6SM SCT030 OVC050
     FM081400 33011KT P6SM BKN025=

USA.gov is the U.S. government's official web portal to all federal, state and local government web resources and services.